Time;durP1;ratioP1;P1;durP2;ratioP2;P2;SDS_P1;SDS_P2;PMS_P1;PMS_P2;Temp;Humidity;BMP_temperature;BMP_pressure;BME280_temperature;BME280_humidity;BME280_pressure;Samples;Min_cycle;Max_cycle;Signal;HPM_P1;HPM_P2
2023/09/15 00:00:30;;;;;;;;;;;;;;;20.59;43.48;101251.38;5074840;28;19944;-63
2023/09/15 00:02:56;;;;;;;;;;;;;;;20.59;43.35;101245.91;5074544;28;19912;-63
2023/09/15 00:05:22;;;;;;;;;;;;;;;20.58;43.35;101243.41;5074414;28;19920;-63
2023/09/15 00:07:47;;;;;;;;;;;;;;;20.50;43.39;101231.84;5074236;28;20316;-64
2023/09/15 00:10:14;;;;;;;;;;;;;;;20.55;43.04;101230.28;5067245;28;19963;-63
2023/09/15 00:12:40;;;;;;;;;;;;;;;20.56;43.43;101232.78;5054809;28;20304;-63
2023/09/15 00:15:07;;;;;;;;;;;;;;;20.51;43.53;101238.13;5056621;28;20016;-63
2023/09/15 00:17:36;;;;;;;;;;;;;;;20.49;43.61;101240.25;5094484;28;19951;-63
2023/09/15 00:20:04;;;;;;;;;;;;;;;20.48;43.48;101236.69;5094851;28;19920;-63
2023/09/15 00:22:30;;;;;;;;;;;;;;;20.50;43.45;101233.72;5083942;28;19973;-63
2023/09/15 00:24:55;;;;;;;;;;;;;;;20.49;43.75;101230.16;5074418;28;20019;-64
2023/09/15 00:27:21;;;;;;;;;;;;;;;20.49;43.58;101226.63;5080264;28;20015;-64
2023/09/15 00:29:46;;;;;;;;;;;;;;;20.50;43.57;101220.06;5076855;28;20379;-64
2023/09/15 00:32:11;;;;;;;;;;;;;;;20.53;43.79;101219.59;5074089;28;20010;-64
2023/09/15 00:34:37;;;;;;;;;;;;;;;20.55;43.60;101224.81;5074018;28;19974;-64
2023/09/15 00:37:04;;;;;;;;;;;;;;;20.56;43.80;101227.31;5074110;28;19958;-64
2023/09/15 00:39:29;;;;;;;;;;;;;;;20.63;43.59;101219.00;5073895;28;20381;-64
2023/09/15 00:41:54;;;;;;;;;;;;;;;20.64;43.75;101218.75;5073744;28;20037;-64
2023/09/15 00:44:19;;;;;;;;;;;;;;;20.63;43.90;101211.63;5073273;28;19912;-64
2023/09/15 00:46:45;;;;;;;;;;;;;;;20.67;44.70;101212.81;5073920;28;19912;-64
2023/09/15 00:49:10;;;;;;;;;;;;;;;20.66;44.94;101219.34;5073426;28;20285;-64
2023/09/15 00:51:35;;;;;;;;;;;;;;;20.67;45.03;101215.56;5073743;28;20254;-64
2023/09/15 00:54:01;;;;;;;;;;;;;;;20.67;45.21;101207.38;5073012;28;20372;-64
2023/09/15 00:56:27;;;;;;;;;;;;;;;20.68;45.06;101209.00;5073469;28;19924;-64
2023/09/15 00:58:52;;;;;;;;;;;;;;;20.68;45.17;101209.00;5073620;28;19917;-64
2023/09/15 01:01:18;;;;;;;;;;;;;;;20.22;45.13;101145.28;5073615;28;19913;-64
2023/09/15 01:03:43;;;;;;;;;;;;;;;20.71;45.11;101212.31;5073657;28;20350;-64
2023/09/15 01:06:11;;;;;;;;;;;;;;;20.71;44.96;101206.88;5073462;28;19919;-64
2023/09/15 01:08:37;;;;;;;;;;;;;;;20.69;45.15;101207.94;5055880;28;19921;-64
2023/09/15 01:11:04;;;;;;;;;;;;;;;20.70;45.07;101214.22;5059371;28;19917;-64
2023/09/15 01:13:31;;;;;;;;;;;;;;;20.75;44.59;101218.97;5053508;28;20314;-64
2023/09/15 01:16:01;;;;;;;;;;;;;;;20.76;44.62;101209.69;5069766;28;19915;-64
2023/09/15 01:18:31;;;;;;;;;;;;;;;20.77;44.47;101217.66;5085563;28;20010;-64
2023/09/15 01:21:14;;;;;;;;;;;;;;;20.80;44.50;101221.78;5073325;28;19957;-64
2023/09/15 01:24:00;;;;;;;;;;;;;;;20.85;44.06;101219.97;5073762;28;19935;-64
2023/09/15 01:26:36;;;;;;;;;;;;;;;20.82;44.63;101220.47;5055465;28;20381;-64
2023/09/15 01:29:20;;;;;;;;;;;;;;;20.84;44.39;101210.16;5065387;28;19995;-64
2023/09/15 01:31:46;;;;;;;;;;;;;;;20.88;44.27;101207.75;5074563;28;19916;-64
2023/09/15 01:34:13;;;;;;;;;;;;;;;20.87;44.64;101200.63;5074730;28;20559;-64
2023/09/15 01:36:39;;;;;;;;;;;;;;;20.88;44.33;101205.84;5073517;28;19919;-64
2023/09/15 01:39:04;;;;;;;;;;;;;;;20.86;44.64;101207.19;5077539;28;19917;-64
2023/09/15 01:41:30;;;;;;;;;;;;;;;20.86;44.72;101208.00;5078118;28;19959;-64
2023/09/15 01:43:55;;;;;;;;;;;;;;;20.87;44.83;101212.38;5077976;28;19912;-64
2023/09/15 01:46:23;;;;;;;;;;;;;;;20.87;44.63;101211.56;5077067;28;19927;-64
2023/09/15 01:48:53;;;;;;;;;;;;;;;20.85;44.67;101216.44;5077260;28;20003;-64
2023/09/15 01:51:20;;;;;;;;;;;;;;;20.86;44.81;101210.72;5077051;28;19980;-64
2023/09/15 01:53:45;;;;;;;;;;;;;;;20.89;44.89;101209.41;5076456;28;19919;-64
2023/09/15 01:56:11;;;;;;;;;;;;;;;20.88;44.67;101207.75;5090063;28;19912;-64
2023/09/15 01:58:36;;;;;;;;;;;;;;;20.89;44.69;101209.41;5097239;28;19912;-64
2023/09/15 02:01:02;;;;;;;;;;;;;;;20.91;44.92;101218.16;5097386;28;19916;-64
2023/09/15 02:03:28;;;;;;;;;;;;;;;20.91;44.73;101209.16;5077511;28;19913;-64
2023/09/15 02:05:53;;;;;;;;;;;;;;;20.94;44.93;101214.97;5077275;28;19923;-64
2023/09/15 02:08:18;;;;;;;;;;;;;;;20.93;44.64;101207.00;5076932;28;19920;-64
2023/09/15 02:10:44;;;;;;;;;;;;;;;20.92;44.61;101208.09;5065204;28;19953;-64
2023/09/15 02:13:09;;;;;;;;;;;;;;;20.97;44.53;101200.84;5056630;28;20378;-64
2023/09/15 02:15:35;;;;;;;;;;;;;;;20.98;44.26;101199.75;5077332;28;19912;-64
2023/09/15 02:18:00;;;;;;;;;;;;;;;20.96;44.29;101199.16;5097150;28;19966;-64
2023/09/15 02:20:25;;;;;;;;;;;;;;;20.97;44.37;101198.09;5096801;28;20467;-63
2023/09/15 02:22:50;;;;;;;;;;;;;;;20.95;44.69;101196.66;5096922;28;19912;-63
2023/09/15 02:25:16;;;;;;;;;;;;;;;20.96;44.72;101188.25;5096682;28;19954;-63
2023/09/15 02:27:42;;;;;;;;;;;;;;;21.01;44.78;101187.53;5094017;28;19916;-63
2023/09/15 02:30:07;;;;;;;;;;;;;;;21.00;44.95;101183.94;5076393;28;19917;-63
2023/09/15 02:32:33;;;;;;;;;;;;;;;21.01;44.69;101188.34;5076479;28;20050;-63
2023/09/15 02:34:58;;;;;;;;;;;;;;;21.02;44.67;101187.28;5076308;28;19918;-63
2023/09/15 02:37:23;;;;;;;;;;;;;;;21.06;45.01;101179.38;5076301;28;19916;-63
2023/09/15 02:39:48;;;;;;;;;;;;;;;21.06;44.69;101166.59;5076010;28;19923;-63
2023/09/15 02:42:14;;;;;;;;;;;;;;;21.05;44.71;101173.13;5076093;28;20003;-63
2023/09/15 02:44:40;;;;;;;;;;;;;;;21.06;44.72;101171.19;5076087;28;19916;-63
2023/09/15 02:47:05;;;;;;;;;;;;;;;21.06;44.73;101171.19;5075832;28;19966;-64
2023/09/15 02:49:31;;;;;;;;;;;;;;;21.03;41.34;101166.25;5074601;28;19916;-63
2023/09/15 02:51:57;;;;;;;;;;;;;;;21.03;42.01;101164.34;5075881;28;19916;-63
2023/09/15 02:54:22;;;;;;;;;;;;;;;20.84;42.69;101158.28;5075187;28;19961;-63
2023/09/15 02:56:47;;;;;;;;;;;;;;;20.84;43.52;101157.44;5075918;28;19987;-64
2023/09/15 02:59:13;;;;;;;;;;;;;;;20.95;43.55;101151.09;5076009;28;19920;-64
2023/09/15 03:01:38;;;;;;;;;;;;;;;21.08;43.68;101148.03;5075649;28;20368;-64
2023/09/15 03:04:03;;;;;;;;;;;;;;;21.18;43.89;101152.03;5075865;28;20451;-64
2023/09/15 03:06:29;;;;;;;;;;;;;;;21.32;43.53;101156.09;5075975;28;19912;-63
2023/09/15 03:08:54;;;;;;;;;;;;;;;21.49;43.17;101158.84;5075500;28;20299;-63
2023/09/15 03:11:22;;;;;;;;;;;;;;;21.60;43.07;101151.59;5070689;28;20364;-63
2023/09/15 03:13:47;;;;;;;;;;;;;;;21.71;42.77;101147.13;5075492;28;19970;-63
2023/09/15 03:16:13;;;;;;;;;;;;;;;21.77;42.97;101146.13;5086232;28;19912;-63
2023/09/15 03:18:38;;;;;;;;;;;;;;;21.82;42.55;101155.25;5095929;28;19942;-64
2023/09/15 03:21:03;;;;;;;;;;;;;;;21.88;42.81;101163.50;5095808;28;19919;-64
2023/09/15 03:23:29;;;;;;;;;;;;;;;21.93;42.74;101158.09;5088123;28;19948;-64
2023/09/15 03:26:01;;;;;;;;;;;;;;;21.95;42.61;101155.94;5075542;28;19912;-64
2023/09/15 03:28:27;;;;;;;;;;;;;;;21.95;42.72;101153.19;5084841;28;19917;-64
2023/09/15 03:30:52;;;;;;;;;;;;;;;21.98;42.65;101158.19;5075056;28;20364;-64
2023/09/15 03:33:17;;;;;;;;;;;;;;;21.99;42.36;101152.47;5075399;28;19912;-63
2023/09/15 03:35:43;;;;;;;;;;;;;;;21.99;42.29;101160.66;5074981;28;20053;-63
2023/09/15 03:38:09;;;;;;;;;;;;;;;22.00;42.47;101164.22;5075324;28;19912;-63
2023/09/15 03:40:34;;;;;;;;;;;;;;;22.01;42.46;101160.41;5075059;28;20007;-63
2023/09/15 03:42:59;;;;;;;;;;;;;;;22.07;42.42;101155.84;5074958;28;19934;-63
2023/09/15 03:45:24;;;;;;;;;;;;;;;22.07;42.27;101153.94;5074951;28;19917;-63
2023/09/15 03:47:50;;;;;;;;;;;;;;;22.08;42.39;101152.81;5074803;28;19919;-63
2023/09/15 03:50:19;;;;;;;;;;;;;;;22.13;42.27;101152.09;5074861;28;19923;-63
2023/09/15 03:52:45;;;;;;;;;;;;;;;22.00;42.68;101154.09;5074802;28;19936;-63
2023/09/15 03:55:11;;;;;;;;;;;;;;;22.01;42.63;101157.69;5074108;28;20373;-63
2023/09/15 03:57:37;;;;;;;;;;;;;;;21.97;42.61;101157.34;5074776;28;19920;-63
2023/09/15 04:00:03;;;;;;;;;;;;;;;21.91;42.91;101152.06;5074633;28;19917;-63
2023/09/15 04:02:28;;;;;;;;;;;;;;;21.95;42.76;101159.53;5074359;28;20392;-63
2023/09/15 04:04:54;;;;;;;;;;;;;;;21.93;43.17;101152.63;5074589;28;19917;-64
2023/09/15 04:07:19;;;;;;;;;;;;;;;21.93;42.94;101149.91;5074478;28;19919;-63
2023/09/15 04:09:45;;;;;;;;;;;;;;;21.92;43.14;101156.47;5070675;28;19920;-64
2023/09/15 04:12:10;;;;;;;;;;;;;;;21.94;43.09;101154.31;5054569;28;19919;-64
2023/09/15 04:14:35;;;;;;;;;;;;;;;21.94;43.09;101157.03;5054615;28;20262;-63
2023/09/15 04:17:04;;;;;;;;;;;;;;;21.93;42.67;101153.44;5088346;28;20280;-63
2023/09/15 04:19:29;;;;;;;;;;;;;;;21.90;43.15;101155.84;5088895;28;20331;-64
2023/09/15 04:21:55;;;;;;;;;;;;;;;21.87;43.33;101162.69;5074400;28;19920;-63
2023/09/15 04:24:20;;;;;;;;;;;;;;;21.86;43.27;101161.03;5074054;28;19919;-63
2023/09/15 04:26:45;;;;;;;;;;;;;;;21.88;43.06;101164.34;5075297;28;19912;-63
2023/09/15 04:29:11;;;;;;;;;;;;;;;21.88;42.89;101169.81;5081627;28;19913;-63
2023/09/15 04:31:37;;;;;;;;;;;;;;;21.89;42.87;101167.91;5074222;28;19917;-64
2023/09/15 04:34:03;;;;;;;;;;;;;;;21.89;42.97;101167.91;5074152;28;19923;-64
2023/09/15 04:36:29;;;;;;;;;;;;;;;21.89;43.10;101185.13;5074152;28;20395;-64
2023/09/15 04:38:55;;;;;;;;;;;;;;;21.88;43.11;101171.69;5073659;28;19916;-64
2023/09/15 04:41:21;;;;;;;;;;;;;;;21.91;42.99;101177.50;5073906;28;19912;-63
2023/09/15 04:43:47;;;;;;;;;;;;;;;21.73;43.87;101175.88;5073698;28;19923;-65
2023/09/15 04:46:12;;;;;;;;;;;;;;;21.74;43.72;101176.72;5073866;28;19923;-63
2023/09/15 04:48:37;;;;;;;;;;;;;;;21.61;44.04;101178.69;5073990;28;19912;-63
2023/09/15 04:51:03;;;;;;;;;;;;;;;21.52;44.43;101171.19;5073681;28;19961;-63
2023/09/15 04:53:28;;;;;;;;;;;;;;;21.59;44.18;101177.31;5073580;28;19997;-63
2023/09/15 04:55:53;;;;;;;;;;;;;;;21.58;44.20;101176.47;5083366;28;19923;-63
2023/09/15 04:58:18;;;;;;;;;;;;;;;21.58;44.35;101173.75;5093858;28;20288;-64
2023/09/15 05:00:44;;;;;;;;;;;;;;;21.59;44.32;101177.31;5093741;28;19912;-64
2023/09/15 05:03:09;;;;;;;;;;;;;;;21.68;44.10;101166.78;5077101;28;19912;-64
2023/09/15 05:05:35;;;;;;;;;;;;;;;21.60;44.21;101177.06;5073531;28;19913;-64
2023/09/15 05:08:00;;;;;;;;;;;;;;;21.58;44.52;101181.09;5073581;28;19974;-64
2023/09/15 05:10:25;;;;;;;;;;;;;;;21.61;44.32;101172.41;5064226;28;19921;-64
2023/09/15 05:12:50;;;;;;;;;;;;;;;21.64;44.37;101177.38;5052863;28;19912;-64
2023/09/15 05:15:16;;;;;;;;;;;;;;;21.56;44.66;101186.84;5056398;28;19913;-63
2023/09/15 05:17:42;;;;;;;;;;;;;;;21.45;44.99;101185.00;5073155;28;19916;-63
2023/09/15 05:20:08;;;;;;;;;;;;;;;21.40;44.96;101177.53;5073181;28;20021;-63
2023/09/15 05:22:33;;;;;;;;;;;;;;;21.29;45.28;101183.91;5073361;28;19913;-63
2023/09/15 05:24:58;;;;;;;;;;;;;;;21.31;45.00;101181.75;5073331;28;19912;-63
2023/09/15 05:27:24;;;;;;;;;;;;;;;21.18;45.22;101179.34;5079948;28;19974;-63
2023/09/15 05:29:50;;;;;;;;;;;;;;;21.23;45.22;101184.91;5075608;28;19962;-63
2023/09/15 05:32:16;;;;;;;;;;;;;;;21.31;45.22;101189.13;5053131;28;19913;-63
2023/09/15 05:34:41;;;;;;;;;;;;;;;21.24;45.59;101192.81;5062119;28;19916;-63
2023/09/15 05:37:07;;;;;;;;;;;;;;;21.32;44.88;101191.63;5073116;28;19936;-63
2023/09/15 05:39:32;;;;;;;;;;;;;;;21.30;45.03;101190.19;5073235;28;19993;-63
2023/09/15 05:41:57;;;;;;;;;;;;;;;21.36;44.70;101197.38;5073163;28;20025;-63
2023/09/15 05:44:22;;;;;;;;;;;;;;;21.28;44.88;101198.63;5073151;28;20333;-63
2023/09/15 05:46:48;;;;;;;;;;;;;;;21.13;45.34;101192.91;5073130;28;20389;-63
2023/09/15 05:49:13;;;;;;;;;;;;;;;21.17;45.26;101199.53;5072852;28;20288;-63
2023/09/15 05:51:39;;;;;;;;;;;;;;;21.22;45.00;101205.09;5072705;28;20373;-63
2023/09/15 05:54:04;;;;;;;;;;;;;;;21.22;45.23;101197.72;5054591;28;19912;-64
2023/09/15 05:56:29;;;;;;;;;;;;;;;21.21;45.41;101206.16;5072793;28;19912;-64
2023/09/15 05:58:55;;;;;;;;;;;;;;;21.19;45.63;101192.75;5072833;28;19913;-64
2023/09/15 06:01:20;;;;;;;;;;;;;;;21.23;45.83;101187.63;5071022;28;19913;-64
2023/09/15 06:03:47;;;;;;;;;;;;;;;21.34;45.49;101180.41;5052995;28;19920;-63
2023/09/15 06:06:12;;;;;;;;;;;;;;;21.39;45.30;101189.53;5053058;28;19940;-63
2023/09/15 06:08:38;;;;;;;;;;;;;;;21.32;45.56;101186.16;5052679;28;19921;-65
2023/09/15 06:11:03;;;;;;;;;;;;;;;21.50;45.28;101193.28;5066865;28;19923;-64
2023/09/15 06:13:29;;;;;;;;;;;;;;;21.43;45.51;101190.69;5072538;28;19913;-64
2023/09/15 06:15:55;;;;;;;;;;;;;;;21.31;46.08;101194.59;5080366;28;20361;-64
2023/09/15 06:18:20;;;;;;;;;;;;;;;21.29;46.08;101197.56;5092918;28;19920;-64
2023/09/15 06:20:45;;;;;;;;;;;;;;;21.33;45.89;101198.72;5093074;28;20283;-64
2023/09/15 06:23:10;;;;;;;;;;;;;;;21.36;45.82;101200.13;5093026;28;19974;-64
2023/09/15 06:25:36;;;;;;;;;;;;;;;21.35;45.99;101203.94;5096595;28;19919;-65
2023/09/15 06:28:01;;;;;;;;;;;;;;;21.41;45.91;101209.25;5089818;28;20015;-62
2023/09/15 06:30:32;;;;;;;;;;;;;;;21.61;45.46;101207.94;5076667;28;19997;-63
2023/09/15 06:32:57;;;;;;;;;;;;;;;21.71;45.54;101210.84;5076300;28;19916;-64
2023/09/15 06:35:23;;;;;;;;;;;;;;;21.73;45.45;101214.16;5076605;28;19923;-64
2023/09/15 06:37:48;;;;;;;;;;;;;;;21.61;45.42;101216.16;5076449;28;20365;-65
2023/09/15 06:40:13;;;;;;;;;;;;;;;21.53;45.86;101209.19;5076320;28;19913;-65
2023/09/15 06:42:39;;;;;;;;;;;;;;;21.69;45.35;101214.91;5076018;28;19970;-64
2023/09/15 06:45:05;;;;;;;;;;;;;;;21.73;45.62;101216.91;5076043;28;19920;-65
2023/09/15 06:47:30;;;;;;;;;;;;;;;21.73;45.43;101213.31;5075985;28;19912;-65
2023/09/15 06:49:55;;;;;;;;;;;;;;;21.71;45.36;101210.84;5075496;28;19916;-64
2023/09/15 06:52:21;;;;;;;;;;;;;;;21.61;45.76;101216.16;5075575;28;19912;-64
2023/09/15 06:54:46;;;;;;;;;;;;;;;21.48;45.87;101214.56;5076085;28;19938;-64
2023/09/15 06:57:11;;;;;;;;;;;;;;;21.48;45.95;101211.84;5077014;28;19924;-64
2023/09/15 06:59:36;;;;;;;;;;;;;;;21.60;45.77;101209.00;5075748;28;19912;-65
2023/09/15 07:02:02;;;;;;;;;;;;;;;21.70;45.38;101203.72;5068222;28;19999;-63
2023/09/15 07:04:28;;;;;;;;;;;;;;;21.67;45.30;101217.88;5056047;28;19913;-66
2023/09/15 07:06:54;;;;;;;;;;;;;;;21.73;45.35;101214.16;5055475;28;19912;-63
2023/09/15 07:09:19;;;;;;;;;;;;;;;21.72;44.96;101217.16;5069855;28;19924;-65
2023/09/15 07:11:44;;;;;;;;;;;;;;;21.78;45.17;101210.66;5055590;28;20318;-67
2023/09/15 07:14:10;;;;;;;;;;;;;;;21.83;44.66;101216.22;5055735;28;19917;-66
2023/09/15 07:16:36;;;;;;;;;;;;;;;21.60;44.87;101215.31;5082329;28;19958;-63
2023/09/15 07:19:01;;;;;;;;;;;;;;;21.60;44.92;101218.06;5095384;28;19923;-63
2023/09/15 07:21:26;;;;;;;;;;;;;;;21.75;44.65;101217.47;5095834;28;19912;-63
2023/09/15 07:23:53;;;;;;;;;;;;;;;21.92;44.45;101222.09;5082795;28;19923;-63
2023/09/15 07:26:19;;;;;;;;;;;;;;;22.00;44.44;101222.47;5075592;28;19912;-63
2023/09/15 07:28:44;;;;;;;;;;;;;;;22.08;44.30;101218.47;5084556;28;20277;-63
2023/09/15 07:31:11;;;;;;;;;;;;;;;22.04;44.38;101217.34;5075390;28;19920;-63
2023/09/15 07:33:37;;;;;;;;;;;;;;;21.88;44.40;101221.78;5075372;28;19912;-64
2023/09/15 07:36:03;;;;;;;;;;;;;;;21.84;44.43;101231.53;5056847;28;20266;-64
2023/09/15 07:38:32;;;;;;;;;;;;;;;21.78;44.54;101238.00;5075189;28;19913;-63
2023/09/15 07:40:58;;;;;;;;;;;;;;;21.73;44.56;101240.66;5074959;28;20277;-62
2023/09/15 07:43:24;;;;;;;;;;;;;;;21.75;44.59;101236.63;5075167;28;19913;-62
2023/09/15 07:45:50;;;;;;;;;;;;;;;21.77;44.34;101239.94;5075144;28;19936;-63
2023/09/15 07:48:16;;;;;;;;;;;;;;;21.93;44.07;101240.97;5075031;28;20369;-63
2023/09/15 07:50:41;;;;;;;;;;;;;;;22.11;43.66;101250.00;5074743;28;19924;-63
2023/09/15 07:53:06;;;;;;;;;;;;;;;22.09;44.02;101239.31;5075022;28;19921;-63
2023/09/15 07:55:31;;;;;;;;;;;;;;;22.18;43.84;101246.00;5074459;28;20008;-63
2023/09/15 07:57:57;;;;;;;;;;;;;;;22.31;43.49;101247.56;5075036;28;20288;-63
2023/09/15 08:00:23;;;;;;;;;;;;;;;22.34;43.25;101247.09;5074698;28;19916;-63
2023/09/15 08:02:48;;;;;;;;;;;;;;;22.28;43.51;101247.25;5074451;28;19919;-63
2023/09/15 08:05:13;;;;;;;;;;;;;;;22.44;43.11;101254.59;5074731;28;20004;-63
2023/09/15 08:07:40;;;;;;;;;;;;;;;22.43;42.83;101244.72;5074577;28;19912;-63
2023/09/15 08:10:05;;;;;;;;;;;;;;;22.63;42.39;101254.28;5068297;28;19916;-63
2023/09/15 08:12:31;;;;;;;;;;;;;;;22.87;42.35;101257.56;5054682;28;19958;-63
2023/09/15 08:14:56;;;;;;;;;;;;;;;22.85;41.85;101257.81;5054674;28;19914;-63
2023/09/15 08:17:21;;;;;;;;;;;;;;;22.72;41.88;101255.50;5094282;28;19919;-64
2023/09/15 08:19:46;;;;;;;;;;;;;;;22.91;41.84;101262.28;5084640;28;19920;-64
2023/09/15 08:22:13;;;;;;;;;;;;;;;23.05;41.98;101260.00;5074493;28;19916;-64
2023/09/15 08:24:38;;;;;;;;;;;;;;;22.95;42.00;101260.66;5074584;28;19912;-64
2023/09/15 08:27:04;;;;;;;;;;;;;;;23.07;41.23;101255.09;5078079;28;19923;-63
2023/09/15 08:29:29;;;;;;;;;;;;;;;23.18;41.47;101261.50;5079531;28;19966;-63
2023/09/15 08:31:54;;;;;;;;;;;;;;;23.13;41.30;101264.19;5056257;28;19920;-64
2023/09/15 08:34:19;;;;;;;;;;;;;;;23.31;41.45;101261.09;5074140;28;20444;-63
2023/09/15 08:36:45;;;;;;;;;;;;;;;23.37;40.96;101262.78;5074085;28;19916;-64
2023/09/15 08:39:12;;;;;;;;;;;;;;;23.44;41.11;101267.22;5073958;28;20007;-64
2023/09/15 08:41:45;;;;;;;;;;;;;;;23.51;41.04;101265.94;5056047;28;19912;-64
2023/09/15 08:44:11;;;;;;;;;;;;;;;23.43;40.78;101262.84;5074115;28;19942;-63
2023/09/15 08:46:37;;;;;;;;;;;;;;;23.31;40.99;101257.50;5073420;28;19912;-64
2023/09/15 08:49:05;;;;;;;;;;;;;;;23.32;40.38;101256.41;5073451;28;19973;-64
2023/09/15 08:51:31;;;;;;;;;;;;;;;23.16;40.73;101258.16;5073930;28;19917;-64
2023/09/15 08:53:56;;;;;;;;;;;;;;;23.23;40.52;101264.28;5073599;28;20284;-64
2023/09/15 08:56:22;;;;;;;;;;;;;;;23.42;40.80;101250.19;5088255;28;19923;-64
2023/09/15 08:58:47;;;;;;;;;;;;;;;23.53;40.52;101249.19;5093924;28;19916;-64
2023/09/15 09:01:14;;;;;;;;;;;;;;;23.56;40.73;101243.19;5083501;28;19920;-64
2023/09/15 09:03:40;;;;;;;;;;;;;;;23.52;40.16;101245.63;5053795;28;19913;-64
2023/09/15 09:06:09;;;;;;;;;;;;;;;23.70;40.17;101247.16;5053816;28;19964;-64
2023/09/15 09:08:35;;;;;;;;;;;;;;;23.65;40.35;101249.03;5053480;28;19920;-64
2023/09/15 09:11:00;;;;;;;;;;;;;;;23.74;39.83;101255.69;5067704;28;19921;-64
2023/09/15 09:13:26;;;;;;;;;;;;;;;23.78;39.89;101265.03;5073427;28;20285;-64
2023/09/15 09:15:51;;;;;;;;;;;;;;;23.82;39.46;101260.72;5080763;28;19977;-64
2023/09/15 09:18:17;;;;;;;;;;;;;;;23.71;39.51;101269.91;5093836;28;19947;-64
2023/09/15 09:20:43;;;;;;;;;;;;;;;23.93;39.76;101261.63;5093776;28;19967;-64
2023/09/15 09:23:09;;;;;;;;;;;;;;;24.04;39.44;101268.81;5093546;28;19944;-64
2023/09/15 09:25:35;;;;;;;;;;;;;;;24.26;39.28;101267.88;5093985;28;20010;-64
2023/09/15 09:28:01;;;;;;;;;;;;;;;24.40;39.25;101266.28;5087415;28;19965;-64
2023/09/15 09:30:29;;;;;;;;;;;;;;;24.53;39.30;101267.75;5073245;28;19920;-64
2023/09/15 09:32:54;;;;;;;;;;;;;;;24.68;39.03;101262.34;5073329;28;19912;-64
2023/09/15 09:35:19;;;;;;;;;;;;;;;24.88;38.95;101263.50;5073612;28;19926;-64
2023/09/15 09:37:45;;;;;;;;;;;;;;;25.00;38.86;101266.84;5073410;28;20358;-64
2023/09/15 09:40:10;;;;;;;;;;;;;;;25.11;38.82;101278.66;5073305;28;20314;-64
2023/09/15 09:42:36;;;;;;;;;;;;;;;24.99;38.26;101272.59;5073401;28;20331;-64
2023/09/15 09:45:03;;;;;;;;;;;;;;;25.00;38.14;101279.72;5073046;28;20336;-64
2023/09/15 09:47:29;;;;;;;;;;;;;;;24.96;37.59;101268.44;5073027;28;19919;-64
2023/09/15 09:49:54;;;;;;;;;;;;;;;24.85;37.96;101264.88;5073217;28;19920;-64
2023/09/15 09:52:21;;;;;;;;;;;;;;;25.01;38.02;101262.16;5073082;28;19912;-64
2023/09/15 09:54:50;;;;;;;;;;;;;;;25.10;37.89;101253.09;5073462;28;19916;-64
2023/09/15 09:57:18;;;;;;;;;;;;;;;25.12;37.70;101250.09;5079544;28;19917;-64
2023/09/15 09:59:44;;;;;;;;;;;;;;;25.07;37.55;101242.66;5055804;28;19919;-64
2023/09/15 10:02:09;;;;;;;;;;;;;;;25.13;37.66;101243.50;5056702;28;20352;-64
2023/09/15 10:04:35;;;;;;;;;;;;;;;25.16;37.01;101239.38;5057144;28;19913;-65
2023/09/15 10:07:00;;;;;;;;;;;;;;;25.11;37.26;101262.16;5056823;28;19952;-64
2023/09/15 10:09:25;;;;;;;;;;;;;;;25.17;37.26;101261.09;5057302;28;19924;-64
2023/09/15 10:11:52;;;;;;;;;;;;;;;25.19;37.27;101264.41;5076787;28;19931;-64
2023/09/15 10:14:18;;;;;;;;;;;;;;;25.24;37.77;101253.44;5076873;28;19920;-64
2023/09/15 10:16:44;;;;;;;;;;;;;;;25.26;37.32;101259.50;5091244;28;20357;-64
2023/09/15 10:19:10;;;;;;;;;;;;;;;25.28;37.33;101253.72;5096803;28;20004;-64
2023/09/15 10:21:36;;;;;;;;;;;;;;;25.29;37.65;101258.94;5096742;28;19919;-64
2023/09/15 10:24:08;;;;;;;;;;;;;;;25.29;37.32;101261.69;5083207;28;19917;-64
2023/09/15 10:26:34;;;;;;;;;;;;;;;25.41;37.77;101244.94;5076398;28;19918;-64
2023/09/15 10:29:00;;;;;;;;;;;;;;;25.46;37.31;101255.94;5085405;28;19913;-64
2023/09/15 10:31:28;;;;;;;;;;;;;;;25.53;37.26;101252.09;5076323;28;19920;-64
2023/09/15 10:33:53;;;;;;;;;;;;;;;25.56;37.11;101257.88;5076231;28;19913;-64
2023/09/15 10:36:21;;;;;;;;;;;;;;;25.57;36.97;101259.50;5076913;28;19917;-64
2023/09/15 10:38:47;;;;;;;;;;;;;;;25.54;36.50;101257.31;5076501;28;19967;-64
2023/09/15 10:41:31;;;;;;;;;;;;;;;25.56;36.20;101257.88;5076546;28;19923;-64
2023/09/15 10:43:56;;;;;;;;;;;;;;;25.67;36.10;101255.94;5076320;28;20288;-64
2023/09/15 10:46:33;;;;;;;;;;;;;;;25.72;35.96;101255.91;5076119;28;19966;-64
2023/09/15 10:48:58;;;;;;;;;;;;;;;25.74;35.85;101261.97;5076661;28;19913;-64
2023/09/15 10:51:24;;;;;;;;;;;;;;;25.64;36.17;101270.22;5076158;28;20343;-64
2023/09/15 10:53:50;;;;;;;;;;;;;;;25.59;35.86;101268.28;5065078;28;19983;-64
2023/09/15 10:56:17;;;;;;;;;;;;;;;25.42;35.98;101268.56;5083250;28;19919;-64
2023/09/15 10:58:44;;;;;;;;;;;;;;;25.60;36.00;101260.88;5096101;28;19916;-64
2023/09/15 11:01:10;;;;;;;;;;;;;;;25.57;35.68;101262.25;5095703;28;19912;-64
2023/09/15 11:03:37;;;;;;;;;;;;;;;25.67;35.77;101256.75;5076111;28;19958;-64
2023/09/15 11:06:08;;;;;;;;;;;;;;;25.73;35.64;101254.00;5076050;28;19920;-64
2023/09/15 11:08:34;;;;;;;;;;;;;;;25.79;35.04;101258.41;5075458;28;19924;-64
2023/09/15 11:10:59;;;;;;;;;;;;;;;25.77;35.18;101263.34;5060738;28;20287;-64
2023/09/15 11:13:25;;;;;;;;;;;;;;;25.83;35.37;101246.53;5055596;28;19917;-64
2023/09/15 11:15:50;;;;;;;;;;;;;;;25.92;35.35;101246.84;5069941;28;19914;-64
2023/09/15 11:18:16;;;;;;;;;;;;;;;25.93;35.12;101245.75;5095728;28;19933;-64
2023/09/15 11:20:41;;;;;;;;;;;;;;;25.97;35.35;101249.59;5078642;28;19970;-64
2023/09/15 11:23:07;;;;;;;;;;;;;;;26.03;35.10;101256.72;5075320;28;20373;-64
2023/09/15 11:25:35;;;;;;;;;;;;;;;26.03;34.41;101242.16;5075377;28;19916;-64
2023/09/15 11:28:00;;;;;;;;;;;;;;;26.20;35.03;101234.38;5084649;28;19919;-64
2023/09/15 11:30:26;;;;;;;;;;;;;;;26.32;35.00;101239.59;5075266;28;19921;-64
2023/09/15 11:32:52;;;;;;;;;;;;;;;26.06;34.49;101203.06;5075290;28;19912;-64
2023/09/15 11:35:19;;;;;;;;;;;;;;;26.41;34.51;101243.44;5075390;28;19912;-64
2023/09/15 11:37:44;;;;;;;;;;;;;;;26.42;34.30;101239.53;5075309;28;19973;-64
2023/09/15 11:40:22;;;;;;;;;;;;;;;26.45;34.15;101241.75;5075148;28;20405;-64
2023/09/15 11:42:51;;;;;;;;;;;;;;;26.48;33.48;101242.28;5074709;28;20384;-64
2023/09/15 11:45:16;;;;;;;;;;;;;;;26.50;33.81;101235.38;5074827;28;20266;-64
2023/09/15 11:47:45;;;;;;;;;;;;;;;26.56;33.57;101231.50;5074958;28;19938;-64
2023/09/15 11:50:10;;;;;;;;;;;;;;;26.58;33.43;101222.97;5074613;28;19924;-64
2023/09/15 11:52:36;;;;;;;;;;;;;;;26.65;32.69;101229.84;5075030;28;19912;-64
2023/09/15 11:55:01;;;;;;;;;;;;;;;26.65;33.39;101227.09;5074359;28;19955;-64
2023/09/15 11:57:27;;;;;;;;;;;;;;;26.74;33.18;101223.72;5074555;28;19912;-64
2023/09/15 11:59:52;;;;;;;;;;;;;;;26.69;32.50;101218.25;5074658;28;19959;-64
2023/09/15 12:02:18;;;;;;;;;;;;;;;26.70;32.21;101223.47;5074475;28;19923;-64
2023/09/15 12:04:43;;;;;;;;;;;;;;;26.75;32.68;101219.88;5056659;28;19912;-64
2023/09/15 12:07:08;;;;;;;;;;;;;;;26.73;32.32;101235.88;5074367;28;19934;-64
2023/09/15 12:09:33;;;;;;;;;;;;;;;26.79;32.53;101229.22;5072262;28;19959;-64
2023/09/15 12:11:59;;;;;;;;;;;;;;;26.80;31.84;101226.19;5054365;28;19917;-64
2023/09/15 12:14:25;;;;;;;;;;;;;;;26.67;32.18;101224.06;5054358;28;19913;-64
2023/09/15 12:16:50;;;;;;;;;;;;;;;26.82;32.51;101221.22;5070497;28;19924;-64
2023/09/15 12:19:16;;;;;;;;;;;;;;;26.82;32.20;101229.47;5074364;28;19913;-64
2023/09/15 12:22:02;;;;;;;;;;;;;;;26.74;31.71;101220.97;5073884;28;19918;-64
2023/09/15 12:24:28;;;;;;;;;;;;;;;26.72;32.21;101225.94;5073611;28;19912;-64
2023/09/15 12:26:54;;;;;;;;;;;;;;;26.70;32.14;101226.22;5076621;28;19952;-63
2023/09/15 12:29:21;;;;;;;;;;;;;;;26.79;32.01;101220.97;5076100;28;19951;-64